Esler Regional Airport Alexandria US
ICAO: KESF
IATA: ESF
Category: Medium
Scheduled Services: No

Elevation: 112 ft
TransAlt. 18000 ft.

Airport Communications:
POLK APP/DEP:132.05
CTAF/UNICOM:122.8
ARNG OPS:141.45
DE RIDDER RDO:122.55

KESF Zoom In..

If you have problems with the map follow the link
https://www.worldairports.se/pages/airport.php?
ICAO=KESF

Runways:

(A) RW 09 length 5999 ft width 150 ft
---- / hdg 90

(B) RW 14 length 5601 ft width 150 ft
---- / hdg 144

(C) RW 27 length 5999 ft width 150 ft
ILS 111.50 / hdg 270

(D) RW 32 length 5601 ft width 150 ft
---- / hdg 324

Location; KESF
Day. 19 / Time. 17.53 Zulu
* Altimeter: 30.48
* Temperature: 10° c. 50°f.
* Wind from: 020° Speed 10 kn with Gusts up to 22 kn.
Dewpoint: -06° c.
Visibility: 10 Statute Miles.
Clouds: Clear (automated report).

KESF 191753Z AUTO 02010G22KT 340V070 10SM CLR 10/M06 A3048 RMK AO2 PK WND 01026/1705 SLP319 T01001061 10100 20033 50003


Wind From 020°
Speed 10 kn.

 
 
jpsmedia worldairports.se 2020   terms of use